sensor_id;sensor_type;location;lat;lon;timestamp;P1;durP1;ratioP1;P2;durP2;ratioP2
18190;SDS011;47004;51.366;12.348;2024-02-21T00:00:51;10.60;;;3.03;;
18190;SDS011;47004;51.366;12.348;2024-02-21T00:02:53;18.70;;;2.90;;
18190;SDS011;47004;51.366;12.348;2024-02-21T00:04:55;17.37;;;3.00;;
18190;SDS011;47004;51.366;12.348;2024-02-21T00:06:57;12.30;;;2.80;;
18190;SDS011;47004;51.366;12.348;2024-02-21T00:09:00;12.60;;;2.83;;
18190;SDS011;47004;51.366;12.348;2024-02-21T00:11:01;13.53;;;2.50;;
18190;SDS011;47004;51.366;12.348;2024-02-21T00:13:04;17.67;;;3.30;;
18190;SDS011;47004;51.366;12.348;2024-02-21T00:15:08;12.53;;;2.83;;
18190;SDS011;47004;51.366;12.348;2024-02-21T00:17:10;14.53;;;3.10;;
18190;SDS011;47004;51.366;12.348;2024-02-21T00:19:12;10.40;;;2.93;;
18190;SDS011;47004;51.366;12.348;2024-02-21T00:21:15;12.30;;;3.30;;
18190;SDS011;47004;51.366;12.348;2024-02-21T00:23:18;10.40;;;3.10;;
18190;SDS011;47004;51.366;12.348;2024-02-21T00:25:19;13.23;;;3.20;;
18190;SDS011;47004;51.366;12.348;2024-02-21T00:27:21;14.37;;;3.27;;
18190;SDS011;47004;51.366;12.348;2024-02-21T00:29:23;10.47;;;2.70;;
18190;SDS011;47004;51.366;12.348;2024-02-21T00:31:28;14.30;;;3.17;;
18190;SDS011;47004;51.366;12.348;2024-02-21T00:33:31;11.33;;;2.90;;
18190;SDS011;47004;51.366;12.348;2024-02-21T00:35:33;11.97;;;2.80;;
18190;SDS011;47004;51.366;12.348;2024-02-21T00:37:35;14.43;;;3.50;;
18190;SDS011;47004;51.366;12.348;2024-02-21T00:39:37;9.73;;;3.10;;
18190;SDS011;47004;51.366;12.348;2024-02-21T00:41:38;11.27;;;3.43;;
18190;SDS011;47004;51.366;12.348;2024-02-21T00:43:40;12.07;;;3.00;;
18190;SDS011;47004;51.366;12.348;2024-02-21T00:45:42;14.43;;;2.90;;
18190;SDS011;47004;51.366;12.348;2024-02-21T00:47:44;13.83;;;3.23;;
18190;SDS011;47004;51.366;12.348;2024-02-21T00:49:48;15.43;;;3.97;;
18190;SDS011;47004;51.366;12.348;2024-02-21T00:51:49;13.83;;;3.53;;
18190;SDS011;47004;51.366;12.348;2024-02-21T00:53:54;11.33;;;2.97;;
18190;SDS011;47004;51.366;12.348;2024-02-21T00:55:56;13.80;;;3.40;;
18190;SDS011;47004;51.366;12.348;2024-02-21T00:57:58;9.47;;;2.97;;
18190;SDS011;47004;51.366;12.348;2024-02-21T01:00:00;16.23;;;3.53;;
18190;SDS011;47004;51.366;12.348;2024-02-21T01:02:01;13.90;;;3.60;;
18190;SDS011;47004;51.366;12.348;2024-02-21T01:04:03;16.27;;;2.97;;
18190;SDS011;47004;51.366;12.348;2024-02-21T01:06:06;11.03;;;2.77;;
18190;SDS011;47004;51.366;12.348;2024-02-21T01:08:11;14.20;;;2.87;;
18190;SDS011;47004;51.366;12.348;2024-02-21T01:10:17;12.83;;;3.10;;
18190;SDS011;47004;51.366;12.348;2024-02-21T01:12:20;10.40;;;3.03;;
18190;SDS011;47004;51.366;12.348;2024-02-21T01:14:21;13.27;;;3.00;;
18190;SDS011;47004;51.366;12.348;2024-02-21T01:16:24;10.13;;;3.13;;
18190;SDS011;47004;51.366;12.348;2024-02-21T01:18:26;9.13;;;2.83;;
18190;SDS011;47004;51.366;12.348;2024-02-21T01:20:27;11.83;;;2.80;;
18190;SDS011;47004;51.366;12.348;2024-02-21T01:22:30;14.37;;;3.97;;
18190;SDS011;47004;51.366;12.348;2024-02-21T01:24:32;13.23;;;3.53;;
18190;SDS011;47004;51.366;12.348;2024-02-21T01:26:37;12.93;;;3.00;;
18190;SDS011;47004;51.366;12.348;2024-02-21T01:28:38;9.70;;;2.67;;
18190;SDS011;47004;51.366;12.348;2024-02-21T01:30:41;8.57;;;3.00;;
18190;SDS011;47004;51.366;12.348;2024-02-21T01:32:43;12.43;;;3.03;;
18190;SDS011;47004;51.366;12.348;2024-02-21T01:34:47;13.40;;;2.93;;
18190;SDS011;47004;51.366;12.348;2024-02-21T01:36:49;9.53;;;3.00;;
18190;SDS011;47004;51.366;12.348;2024-02-21T01:38:52;12.57;;;3.40;;
18190;SDS011;47004;51.366;12.348;2024-02-21T01:40:54;13.03;;;2.97;;
18190;SDS011;47004;51.366;12.348;2024-02-21T01:42:58;10.57;;;3.03;;
18190;SDS011;47004;51.366;12.348;2024-02-21T01:45:00;11.70;;;2.77;;
18190;SDS011;47004;51.366;12.348;2024-02-21T01:47:01;13.77;;;3.10;;
18190;SDS011;47004;51.366;12.348;2024-02-21T01:49:03;15.77;;;3.13;;
18190;SDS011;47004;51.366;12.348;2024-02-21T01:51:08;9.77;;;2.63;;
18190;SDS011;47004;51.366;12.348;2024-02-21T01:53:10;12.37;;;2.90;;
18190;SDS011;47004;51.366;12.348;2024-02-21T01:55:19;12.70;;;3.40;;
18190;SDS011;47004;51.366;12.348;2024-02-21T01:57:21;13.97;;;3.83;;
18190;SDS011;47004;51.366;12.348;2024-02-21T01:59:23;13.37;;;3.43;;
18190;SDS011;47004;51.366;12.348;2024-02-21T02:01:24;10.47;;;3.13;;
18190;SDS011;47004;51.366;12.348;2024-02-21T02:03:26;14.77;;;2.93;;
18190;SDS011;47004;51.366;12.348;2024-02-21T02:05:29;11.50;;;2.67;;
18190;SDS011;47004;51.366;12.348;2024-02-21T02:07:30;12.63;;;2.80;;
18190;SDS011;47004;51.366;12.348;2024-02-21T02:09:32;11.00;;;3.03;;
18190;SDS011;47004;51.366;12.348;2024-02-21T02:11:36;12.37;;;3.00;;
18190;SDS011;47004;51.366;12.348;2024-02-21T02:13:38;12.13;;;3.37;;
18190;SDS011;47004;51.366;12.348;2024-02-21T02:15:40;8.97;;;3.17;;
18190;SDS011;47004;51.366;12.348;2024-02-21T02:17:41;16.00;;;3.00;;
18190;SDS011;47004;51.366;12.348;2024-02-21T02:19:43;13.43;;;3.40;;
18190;SDS011;47004;51.366;12.348;2024-02-21T02:21:46;14.30;;;2.97;;
18190;SDS011;47004;51.366;12.348;2024-02-21T02:23:54;13.17;;;3.27;;
18190;SDS011;47004;51.366;12.348;2024-02-21T02:25:57;14.73;;;3.13;;
18190;SDS011;47004;51.366;12.348;2024-02-21T02:28:02;9.10;;;3.03;;
18190;SDS011;47004;51.366;12.348;2024-02-21T02:30:07;12.93;;;3.07;;
18190;SDS011;47004;51.366;12.348;2024-02-21T02:32:10;17.70;;;4.00;;
18190;SDS011;47004;51.366;12.348;2024-02-21T02:34:13;12.67;;;3.13;;
18190;SDS011;47004;51.366;12.348;2024-02-21T02:36:13;9.83;;;3.10;;
18190;SDS011;47004;51.366;12.348;2024-02-21T02:38:17;15.83;;;3.93;;
18190;SDS011;47004;51.366;12.348;2024-02-21T02:40:23;8.83;;;2.97;;
18190;SDS011;47004;51.366;12.348;2024-02-21T02:42:25;13.93;;;3.23;;
18190;SDS011;47004;51.366;12.348;2024-02-21T02:44:27;8.63;;;2.50;;
18190;SDS011;47004;51.366;12.348;2024-02-21T02:46:28;14.73;;;3.20;;
18190;SDS011;47004;51.366;12.348;2024-02-21T02:48:30;15.67;;;2.93;;
18190;SDS011;47004;51.366;12.348;2024-02-21T02:50:31;9.63;;;3.33;;
18190;SDS011;47004;51.366;12.348;2024-02-21T02:52:33;9.13;;;3.00;;
18190;SDS011;47004;51.366;12.348;2024-02-21T02:54:34;8.47;;;2.90;;
18190;SDS011;47004;51.366;12.348;2024-02-21T02:56:37;8.23;;;2.80;;
18190;SDS011;47004;51.366;12.348;2024-02-21T02:58:39;12.67;;;3.60;;
18190;SDS011;47004;51.366;12.348;2024-02-21T03:00:41;11.67;;;3.37;;
18190;SDS011;47004;51.366;12.348;2024-02-21T03:02:44;16.37;;;4.10;;
18190;SDS011;47004;51.366;12.348;2024-02-21T03:04:47;9.73;;;3.00;;
18190;SDS011;47004;51.366;12.348;2024-02-21T03:06:49;9.20;;;3.00;;
18190;SDS011;47004;51.366;12.348;2024-02-21T03:08:51;18.33;;;3.17;;
18190;SDS011;47004;51.366;12.348;2024-02-21T03:10:54;13.93;;;2.80;;
18190;SDS011;47004;51.366;12.348;2024-02-21T03:12:58;10.27;;;3.00;;
18190;SDS011;47004;51.366;12.348;2024-02-21T03:15:00;10.70;;;2.80;;
18190;SDS011;47004;51.366;12.348;2024-02-21T03:17:02;13.60;;;3.10;;
18190;SDS011;47004;51.366;12.348;2024-02-21T03:19:03;14.50;;;3.13;;
18190;SDS011;47004;51.366;12.348;2024-02-21T03:21:05;13.83;;;2.60;;
18190;SDS011;47004;51.366;12.348;2024-02-21T03:23:09;15.60;;;3.00;;
18190;SDS011;47004;51.366;12.348;2024-02-21T03:25:10;13.97;;;3.30;;
18190;SDS011;47004;51.366;12.348;2024-02-21T03:27:12;15.83;;;3.70;;
18190;SDS011;47004;51.366;12.348;2024-02-21T03:29:17;13.53;;;3.17;;
18190;SDS011;47004;51.366;12.348;2024-02-21T03:31:19;12.53;;;3.67;;
18190;SDS011;47004;51.366;12.348;2024-02-21T03:33:21;9.90;;;3.40;;
18190;SDS011;47004;51.366;12.348;2024-02-21T03:35:23;10.33;;;2.97;;
18190;SDS011;47004;51.366;12.348;2024-02-21T03:37:26;17.13;;;3.33;;
18190;SDS011;47004;51.366;12.348;2024-02-21T03:39:30;11.23;;;2.87;;
18190;SDS011;47004;51.366;12.348;2024-02-21T03:41:32;10.20;;;3.27;;
18190;SDS011;47004;51.366;12.348;2024-02-21T03:43:34;13.00;;;3.33;;
18190;SDS011;47004;51.366;12.348;2024-02-21T03:45:37;8.03;;;2.80;;
18190;SDS011;47004;51.366;12.348;2024-02-21T03:47:42;10.50;;;3.47;;
18190;SDS011;47004;51.366;12.348;2024-02-21T03:49:46;14.83;;;2.97;;
18190;SDS011;47004;51.366;12.348;2024-02-21T03:51:48;11.33;;;3.07;;
18190;SDS011;47004;51.366;12.348;2024-02-21T03:53:50;9.93;;;2.97;;
18190;SDS011;47004;51.366;12.348;2024-02-21T03:55:51;14.70;;;3.20;;
18190;SDS011;47004;51.366;12.348;2024-02-21T03:57:53;11.97;;;2.80;;
18190;SDS011;47004;51.366;12.348;2024-02-21T03:59:55;9.67;;;3.03;;
18190;SDS011;47004;51.366;12.348;2024-02-21T04:01:58;15.33;;;2.93;;
18190;SDS011;47004;51.366;12.348;2024-02-21T04:04:00;7.87;;;2.57;;
18190;SDS011;47004;51.366;12.348;2024-02-21T04:06:03;11.73;;;3.00;;
18190;SDS011;47004;51.366;12.348;2024-02-21T04:08:04;13.47;;;3.13;;
18190;SDS011;47004;51.366;12.348;2024-02-21T04:10:08;17.03;;;3.23;;
18190;SDS011;47004;51.366;12.348;2024-02-21T04:12:12;11.97;;;3.20;;
18190;SDS011;47004;51.366;12.348;2024-02-21T04:14:14;14.30;;;3.30;;
18190;SDS011;47004;51.366;12.348;2024-02-21T04:16:16;9.87;;;3.30;;
18190;SDS011;47004;51.366;12.348;2024-02-21T04:18:22;19.70;;;3.40;;
18190;SDS011;47004;51.366;12.348;2024-02-21T04:20:24;12.70;;;3.40;;
18190;SDS011;47004;51.366;12.348;2024-02-21T04:22:25;14.63;;;3.50;;
18190;SDS011;47004;51.366;12.348;2024-02-21T04:24:27;14.03;;;3.63;;
18190;SDS011;47004;51.366;12.348;2024-02-21T04:26:28;14.13;;;3.77;;
18190;SDS011;47004;51.366;12.348;2024-02-21T04:28:30;10.70;;;3.67;;
18190;SDS011;47004;51.366;12.348;2024-02-21T04:30:32;10.17;;;3.20;;
18190;SDS011;47004;51.366;12.348;2024-02-21T04:32:34;14.77;;;3.30;;
18190;SDS011;47004;51.366;12.348;2024-02-21T04:34:37;9.03;;;3.53;;
18190;SDS011;47004;51.366;12.348;2024-02-21T04:36:39;7.97;;;2.93;;
18190;SDS011;47004;51.366;12.348;2024-02-21T04:38:41;11.77;;;3.50;;
18190;SDS011;47004;51.366;12.348;2024-02-21T04:40:43;8.53;;;2.87;;
18190;SDS011;47004;51.366;12.348;2024-02-21T04:42:45;11.70;;;3.73;;
18190;SDS011;47004;51.366;12.348;2024-02-21T04:44:46;8.67;;;3.30;;
18190;SDS011;47004;51.366;12.348;2024-02-21T04:46:48;11.97;;;3.30;;
18190;SDS011;47004;51.366;12.348;2024-02-21T04:48:50;10.30;;;3.63;;
18190;SDS011;47004;51.366;12.348;2024-02-21T04:50:56;8.53;;;3.77;;
18190;SDS011;47004;51.366;12.348;2024-02-21T04:52:56;12.77;;;4.10;;
18190;SDS011;47004;51.366;12.348;2024-02-21T04:54:58;11.00;;;3.60;;
18190;SDS011;47004;51.366;12.348;2024-02-21T04:57:00;11.67;;;3.33;;
18190;SDS011;47004;51.366;12.348;2024-02-21T04:59:02;14.50;;;3.83;;
18190;SDS011;47004;51.366;12.348;2024-02-21T05:01:04;12.13;;;3.93;;
18190;SDS011;47004;51.366;12.348;2024-02-21T05:03:07;11.47;;;3.47;;
18190;SDS011;47004;51.366;12.348;2024-02-21T05:05:09;14.53;;;4.20;;
18190;SDS011;47004;51.366;12.348;2024-02-21T05:07:13;14.57;;;3.70;;
18190;SDS011;47004;51.366;12.348;2024-02-21T05:09:15;14.43;;;4.43;;
18190;SDS011;47004;51.366;12.348;2024-02-21T05:11:17;20.97;;;3.60;;
18190;SDS011;47004;51.366;12.348;2024-02-21T05:13:18;15.03;;;4.10;;
18190;SDS011;47004;51.366;12.348;2024-02-21T05:15:20;15.03;;;3.97;;
18190;SDS011;47004;51.366;12.348;2024-02-21T05:17:25;9.97;;;3.43;;
18190;SDS011;47004;51.366;12.348;2024-02-21T05:19:30;12.30;;;3.83;;
18190;SDS011;47004;51.366;12.348;2024-02-21T05:21:31;12.07;;;3.73;;
18190;SDS011;47004;51.366;12.348;2024-02-21T05:23:35;9.07;;;3.43;;
18190;SDS011;47004;51.366;12.348;2024-02-21T05:25:36;17.23;;;4.00;;
18190;SDS011;47004;51.366;12.348;2024-02-21T05:27:41;17.83;;;4.60;;
18190;SDS011;47004;51.366;12.348;2024-02-21T05:29:43;14.40;;;4.30;;
18190;SDS011;47004;51.366;12.348;2024-02-21T05:31:55;14.63;;;3.37;;
18190;SDS011;47004;51.366;12.348;2024-02-21T05:33:57;13.97;;;3.80;;
18190;SDS011;47004;51.366;12.348;2024-02-21T05:35:58;7.90;;;3.03;;
18190;SDS011;47004;51.366;12.348;2024-02-21T05:38:00;14.77;;;3.60;;
18190;SDS011;47004;51.366;12.348;2024-02-21T05:40:07;12.37;;;3.00;;
18190;SDS011;47004;51.366;12.348;2024-02-21T05:42:12;11.83;;;3.80;;
18190;SDS011;47004;51.366;12.348;2024-02-21T05:44:13;16.73;;;3.50;;
18190;SDS011;47004;51.366;12.348;2024-02-21T05:46:18;13.57;;;3.00;;
18190;SDS011;47004;51.366;12.348;2024-02-21T05:48:21;14.17;;;3.03;;
18190;SDS011;47004;51.366;12.348;2024-02-21T05:50:23;10.87;;;2.90;;
18190;SDS011;47004;51.366;12.348;2024-02-21T05:52:28;12.43;;;3.57;;
18190;SDS011;47004;51.366;12.348;2024-02-21T05:54:30;14.93;;;3.43;;
18190;SDS011;47004;51.366;12.348;2024-02-21T05:56:34;8.30;;;3.80;;
18190;SDS011;47004;51.366;12.348;2024-02-21T05:58:34;14.77;;;3.80;;
18190;SDS011;47004;51.366;12.348;2024-02-21T06:00:36;10.40;;;3.43;;
18190;SDS011;47004;51.366;12.348;2024-02-21T06:02:41;16.00;;;4.13;;
18190;SDS011;47004;51.366;12.348;2024-02-21T06:04:43;16.27;;;4.10;;
18190;SDS011;47004;51.366;12.348;2024-02-21T06:06:46;10.27;;;3.17;;
18190;SDS011;47004;51.366;12.348;2024-02-21T06:08:48;7.97;;;3.33;;
18190;SDS011;47004;51.366;12.348;2024-02-21T06:10:50;10.53;;;3.60;;
18190;SDS011;47004;51.366;12.348;2024-02-21T06:12:59;12.93;;;3.80;;
18190;SDS011;47004;51.366;12.348;2024-02-21T06:15:02;14.73;;;3.60;;
18190;SDS011;47004;51.366;12.348;2024-02-21T06:17:04;17.10;;;3.60;;
18190;SDS011;47004;51.366;12.348;2024-02-21T06:19:06;9.10;;;3.20;;
18190;SDS011;47004;51.366;12.348;2024-02-21T06:21:08;15.50;;;3.03;;
18190;SDS011;47004;51.366;12.348;2024-02-21T06:23:09;10.70;;;3.80;;
18190;SDS011;47004;51.366;12.348;2024-02-21T06:25:12;12.20;;;3.47;;
18190;SDS011;47004;51.366;12.348;2024-02-21T06:27:14;17.03;;;3.83;;
18190;SDS011;47004;51.366;12.348;2024-02-21T06:29:18;9.93;;;3.63;;
18190;SDS011;47004;51.366;12.348;2024-02-21T06:31:20;13.47;;;4.27;;
18190;SDS011;47004;51.366;12.348;2024-02-21T06:33:22;14.03;;;4.47;;
18190;SDS011;47004;51.366;12.348;2024-02-21T06:35:24;11.03;;;3.90;;
18190;SDS011;47004;51.366;12.348;2024-02-21T06:37:27;13.57;;;4.40;;
18190;SDS011;47004;51.366;12.348;2024-02-21T06:39:29;13.70;;;3.83;;
18190;SDS011;47004;51.366;12.348;2024-02-21T06:41:31;20.50;;;6.77;;
18190;SDS011;47004;51.366;12.348;2024-02-21T06:43:34;14.67;;;4.67;;
18190;SDS011;47004;51.366;12.348;2024-02-21T06:45:36;14.30;;;4.43;;
18190;SDS011;47004;51.366;12.348;2024-02-21T06:47:38;10.30;;;3.50;;
18190;SDS011;47004;51.366;12.348;2024-02-21T06:49:43;11.67;;;3.80;;
18190;SDS011;47004;51.366;12.348;2024-02-21T06:51:50;11.27;;;3.40;;
18190;SDS011;47004;51.366;12.348;2024-02-21T06:53:55;11.13;;;3.90;;
18190;SDS011;47004;51.366;12.348;2024-02-21T06:55:57;14.13;;;3.93;;
18190;SDS011;47004;51.366;12.348;2024-02-21T06:57:58;12.40;;;4.23;;
18190;SDS011;47004;51.366;12.348;2024-02-21T07:00:00;11.90;;;3.77;;
18190;SDS011;47004;51.366;12.348;2024-02-21T07:02:03;9.57;;;3.97;;
18190;SDS011;47004;51.366;12.348;2024-02-21T07:04:05;9.77;;;3.47;;
18190;SDS011;47004;51.366;12.348;2024-02-21T07:06:07;14.90;;;4.23;;
18190;SDS011;47004;51.366;12.348;2024-02-21T07:08:09;10.53;;;3.60;;
18190;SDS011;47004;51.366;12.348;2024-02-21T07:10:11;10.03;;;3.30;;
18190;SDS011;47004;51.366;12.348;2024-02-21T07:12:13;11.07;;;3.27;;
18190;SDS011;47004;51.366;12.348;2024-02-21T07:14:15;11.17;;;3.77;;
18190;SDS011;47004;51.366;12.348;2024-02-21T07:16:17;10.43;;;3.87;;
18190;SDS011;47004;51.366;12.348;2024-02-21T07:18:23;10.47;;;4.70;;
18190;SDS011;47004;51.366;12.348;2024-02-21T07:20:25;15.13;;;5.10;;
18190;SDS011;47004;51.366;12.348;2024-02-21T07:22:27;14.10;;;5.30;;
18190;SDS011;47004;51.366;12.348;2024-02-21T07:24:29;18.47;;;5.33;;
18190;SDS011;47004;51.366;12.348;2024-02-21T07:26:31;14.73;;;5.13;;
18190;SDS011;47004;51.366;12.348;2024-02-21T07:28:33;13.73;;;5.67;;
18190;SDS011;47004;51.366;12.348;2024-02-21T07:30:35;14.37;;;5.77;;
18190;SDS011;47004;51.366;12.348;2024-02-21T07:32:37;16.20;;;6.10;;
18190;SDS011;47004;51.366;12.348;2024-02-21T07:34:40;14.80;;;5.43;;
18190;SDS011;47004;51.366;12.348;2024-02-21T07:36:43;13.83;;;5.27;;
18190;SDS011;47004;51.366;12.348;2024-02-21T07:38:45;19.03;;;5.50;;
18190;SDS011;47004;51.366;12.348;2024-02-21T07:40:47;12.10;;;4.97;;
18190;SDS011;47004;51.366;12.348;2024-02-21T07:42:49;12.30;;;5.20;;
18190;SDS011;47004;51.366;12.348;2024-02-21T07:44:50;13.40;;;4.87;;
18190;SDS011;47004;51.366;12.348;2024-02-21T07:46:52;13.47;;;4.90;;
18190;SDS011;47004;51.366;12.348;2024-02-21T07:48:54;13.90;;;5.20;;
18190;SDS011;47004;51.366;12.348;2024-02-21T07:50:57;17.90;;;5.17;;
18190;SDS011;47004;51.366;12.348;2024-02-21T07:52:59;11.27;;;4.70;;
18190;SDS011;47004;51.366;12.348;2024-02-21T07:55:01;13.03;;;5.57;;
18190;SDS011;47004;51.366;12.348;2024-02-21T07:57:03;14.43;;;5.33;;
18190;SDS011;47004;51.366;12.348;2024-02-21T07:59:05;11.47;;;5.23;;
18190;SDS011;47004;51.366;12.348;2024-02-21T08:01:08;11.10;;;4.80;;
18190;SDS011;47004;51.366;12.348;2024-02-21T08:03:10;13.80;;;5.17;;
18190;SDS011;47004;51.366;12.348;2024-02-21T08:05:12;15.27;;;5.50;;
18190;SDS011;47004;51.366;12.348;2024-02-21T08:07:15;12.57;;;5.17;;
18190;SDS011;47004;51.366;12.348;2024-02-21T08:09:20;18.70;;;6.33;;
18190;SDS011;47004;51.366;12.348;2024-02-21T08:11:23;17.83;;;5.77;;
18190;SDS011;47004;51.366;12.348;2024-02-21T08:13:24;19.10;;;6.63;;
18190;SDS011;47004;51.366;12.348;2024-02-21T08:15:28;17.63;;;6.43;;
18190;SDS011;47004;51.366;12.348;2024-02-21T08:17:30;13.57;;;5.37;;
18190;SDS011;47004;51.366;12.348;2024-02-21T08:19:32;14.40;;;5.47;;
18190;SDS011;47004;51.366;12.348;2024-02-21T08:21:34;16.47;;;6.30;;
18190;SDS011;47004;51.366;12.348;2024-02-21T08:23:37;18.23;;;5.70;;
18190;SDS011;47004;51.366;12.348;2024-02-21T08:25:39;12.93;;;4.80;;
18190;SDS011;47004;51.366;12.348;2024-02-21T08:27:41;15.83;;;5.73;;
18190;SDS011;47004;51.366;12.348;2024-02-21T08:29:42;13.17;;;5.30;;
18190;SDS011;47004;51.366;12.348;2024-02-21T08:31:44;17.90;;;5.93;;
18190;SDS011;47004;51.366;12.348;2024-02-21T08:33:46;16.90;;;6.30;;
18190;SDS011;47004;51.366;12.348;2024-02-21T08:35:48;11.17;;;5.40;;
18190;SDS011;47004;51.366;12.348;2024-02-21T08:37:50;15.53;;;5.30;;
18190;SDS011;47004;51.366;12.348;2024-02-21T08:39:54;10.73;;;5.10;;
18190;SDS011;47004;51.366;12.348;2024-02-21T08:41:58;11.97;;;4.93;;
18190;SDS011;47004;51.366;12.348;2024-02-21T08:44:00;16.70;;;5.30;;
18190;SDS011;47004;51.366;12.348;2024-02-21T08:46:03;14.90;;;5.50;;
18190;SDS011;47004;51.366;12.348;2024-02-21T08:48:05;13.13;;;5.30;;
18190;SDS011;47004;51.366;12.348;2024-02-21T08:50:08;11.83;;;4.93;;
18190;SDS011;47004;51.366;12.348;2024-02-21T08:52:12;13.83;;;5.10;;
18190;SDS011;47004;51.366;12.348;2024-02-21T08:54:17;15.83;;;5.37;;
18190;SDS011;47004;51.366;12.348;2024-02-21T08:56:20;14.77;;;5.30;;
18190;SDS011;47004;51.366;12.348;2024-02-21T08:58:21;14.43;;;5.20;;
18190;SDS011;47004;51.366;12.348;2024-02-21T09:00:25;18.57;;;5.07;;
18190;SDS011;47004;51.366;12.348;2024-02-21T09:02:27;15.00;;;5.73;;
18190;SDS011;47004;51.366;12.348;2024-02-21T09:04:29;13.80;;;4.90;;
18190;SDS011;47004;51.366;12.348;2024-02-21T09:06:35;9.63;;;4.70;;
18190;SDS011;47004;51.366;12.348;2024-02-21T09:08:39;14.83;;;5.13;;
18190;SDS011;47004;51.366;12.348;2024-02-21T09:10:41;12.47;;;4.97;;
18190;SDS011;47004;51.366;12.348;2024-02-21T09:12:43;12.27;;;5.13;;
18190;SDS011;47004;51.366;12.348;2024-02-21T09:14:45;10.83;;;4.87;;
18190;SDS011;47004;51.366;12.348;2024-02-21T09:16:49;14.60;;;5.53;;
18190;SDS011;47004;51.366;12.348;2024-02-21T09:18:51;14.93;;;4.93;;
18190;SDS011;47004;51.366;12.348;2024-02-21T09:20:53;14.97;;;5.13;;
18190;SDS011;47004;51.366;12.348;2024-02-21T09:22:55;12.67;;;5.07;;
18190;SDS011;47004;51.366;12.348;2024-02-21T09:24:56;12.57;;;5.27;;
18190;SDS011;47004;51.366;12.348;2024-02-21T09:26:59;15.63;;;6.20;;
18190;SDS011;47004;51.366;12.348;2024-02-21T09:29:11;14.90;;;5.73;;
18190;SDS011;47004;51.366;12.348;2024-02-21T09:31:13;20.80;;;5.33;;
18190;SDS011;47004;51.366;12.348;2024-02-21T09:33:15;12.33;;;4.87;;
18190;SDS011;47004;51.366;12.348;2024-02-21T09:35:19;17.60;;;5.67;;
18190;SDS011;47004;51.366;12.348;2024-02-21T09:37:23;16.00;;;4.87;;
18190;SDS011;47004;51.366;12.348;2024-02-21T09:39:25;17.77;;;5.23;;
18190;SDS011;47004;51.366;12.348;2024-02-21T09:41:27;13.23;;;5.13;;
18190;SDS011;47004;51.366;12.348;2024-02-21T09:43:29;17.97;;;6.07;;
18190;SDS011;47004;51.366;12.348;2024-02-21T09:45:33;14.27;;;5.87;;
18190;SDS011;47004;51.366;12.348;2024-02-21T09:47:40;16.00;;;5.30;;
18190;SDS011;47004;51.366;12.348;2024-02-21T09:49:48;17.27;;;5.93;;
18190;SDS011;47004;51.366;12.348;2024-02-21T09:51:51;21.40;;;6.47;;
18190;SDS011;47004;51.366;12.348;2024-02-21T09:53:56;14.87;;;5.83;;
18190;SDS011;47004;51.366;12.348;2024-02-21T09:55:59;12.23;;;5.33;;
18190;SDS011;47004;51.366;12.348;2024-02-21T09:58:02;12.87;;;5.73;;
18190;SDS011;47004;51.366;12.348;2024-02-21T10:00:07;13.50;;;5.20;;
18190;SDS011;47004;51.366;12.348;2024-02-21T10:02:13;18.43;;;5.70;;
18190;SDS011;47004;51.366;12.348;2024-02-21T10:04:15;13.93;;;5.27;;
18190;SDS011;47004;51.366;12.348;2024-02-21T10:06:18;20.30;;;5.83;;
18190;SDS011;47004;51.366;12.348;2024-02-21T10:08:20;14.17;;;5.30;;
18190;SDS011;47004;51.366;12.348;2024-02-21T10:10:22;14.60;;;5.37;;
18190;SDS011;47004;51.366;12.348;2024-02-21T10:12:24;15.83;;;5.60;;
18190;SDS011;47004;51.366;12.348;2024-02-21T10:14:26;11.07;;;5.40;;
18190;SDS011;47004;51.366;12.348;2024-02-21T10:16:28;16.70;;;5.57;;
18190;SDS011;47004;51.366;12.348;2024-02-21T10:18:31;11.23;;;5.60;;
18190;SDS011;47004;51.366;12.348;2024-02-21T10:20:33;13.87;;;5.97;;
18190;SDS011;47004;51.366;12.348;2024-02-21T10:22:35;16.33;;;5.60;;
18190;SDS011;47004;51.366;12.348;2024-02-21T10:24:42;15.10;;;5.37;;
18190;SDS011;47004;51.366;12.348;2024-02-21T10:26:44;15.83;;;5.87;;
18190;SDS011;47004;51.366;12.348;2024-02-21T10:28:48;21.00;;;6.27;;
18190;SDS011;47004;51.366;12.348;2024-02-21T10:30:51;15.27;;;5.87;;
18190;SDS011;47004;51.366;12.348;2024-02-21T10:32:53;17.10;;;6.23;;
18190;SDS011;47004;51.366;12.348;2024-02-21T10:35:01;14.53;;;5.27;;
18190;SDS011;47004;51.366;12.348;2024-02-21T10:37:05;21.50;;;6.60;;
18190;SDS011;47004;51.366;12.348;2024-02-21T10:39:08;15.67;;;5.70;;
18190;SDS011;47004;51.366;12.348;2024-02-21T10:41:09;14.47;;;6.10;;
18190;SDS011;47004;51.366;12.348;2024-02-21T10:43:16;14.33;;;5.33;;
18190;SDS011;47004;51.366;12.348;2024-02-21T10:45:19;12.57;;;5.33;;
18190;SDS011;47004;51.366;12.348;2024-02-21T10:47:22;14.27;;;4.80;;
18190;SDS011;47004;51.366;12.348;2024-02-21T10:49:25;18.30;;;5.43;;
18190;SDS011;47004;51.366;12.348;2024-02-21T10:51:30;11.47;;;4.70;;
18190;SDS011;47004;51.366;12.348;2024-02-21T10:53:35;16.63;;;5.13;;
18190;SDS011;47004;51.366;12.348;2024-02-21T10:55:48;16.73;;;4.77;;
18190;SDS011;47004;51.366;12.348;2024-02-21T10:57:59;11.80;;;4.37;;
18190;SDS011;47004;51.366;12.348;2024-02-21T11:00:02;11.70;;;4.23;;
18190;SDS011;47004;51.366;12.348;2024-02-21T11:02:08;12.53;;;4.53;;
18190;SDS011;47004;51.366;12.348;2024-02-21T11:04:10;11.77;;;3.93;;
18190;SDS011;47004;51.366;12.348;2024-02-21T11:06:13;10.67;;;4.27;;
18190;SDS011;47004;51.366;12.348;2024-02-21T11:08:17;12.87;;;4.33;;
18190;SDS011;47004;51.366;12.348;2024-02-21T11:10:20;9.23;;;4.03;;
18190;SDS011;47004;51.366;12.348;2024-02-21T11:12:32;15.40;;;4.23;;
18190;SDS011;47004;51.366;12.348;2024-02-21T11:14:34;9.70;;;3.77;;
18190;SDS011;47004;51.366;12.348;2024-02-21T11:16:41;14.17;;;4.50;;
18190;SDS011;47004;51.366;12.348;2024-02-21T11:18:43;16.00;;;4.60;;
18190;SDS011;47004;51.366;12.348;2024-02-21T11:20:49;11.93;;;4.87;;
18190;SDS011;47004;51.366;12.348;2024-02-21T11:22:51;10.50;;;3.87;;
18190;SDS011;47004;51.366;12.348;2024-02-21T11:25:05;9.50;;;3.40;;
18190;SDS011;47004;51.366;12.348;2024-02-21T11:27:11;9.90;;;2.73;;
18190;SDS011;47004;51.366;12.348;2024-02-21T11:29:13;8.47;;;3.30;;
18190;SDS011;47004;51.366;12.348;2024-02-21T11:31:25;9.90;;;3.30;;
18190;SDS011;47004;51.366;12.348;2024-02-21T11:33:28;9.97;;;3.50;;
18190;SDS011;47004;51.366;12.348;2024-02-21T11:35:32;7.13;;;3.00;;
18190;SDS011;47004;51.366;12.348;2024-02-21T11:37:35;11.00;;;3.30;;
18190;SDS011;47004;51.366;12.348;2024-02-21T11:39:37;5.93;;;2.40;;
18190;SDS011;47004;51.366;12.348;2024-02-21T11:41:43;8.30;;;2.63;;
18190;SDS011;47004;51.366;12.348;2024-02-21T11:43:45;13.60;;;4.03;;
18190;SDS011;47004;51.366;12.348;2024-02-21T11:45:47;6.63;;;3.07;;
18190;SDS011;47004;51.366;12.348;2024-02-21T11:47:49;7.67;;;2.50;;
18190;SDS011;47004;51.366;12.348;2024-02-21T11:49:53;9.37;;;2.67;;
18190;SDS011;47004;51.366;12.348;2024-02-21T11:51:59;5.93;;;2.77;;
18190;SDS011;47004;51.366;12.348;2024-02-21T11:54:05;6.77;;;3.13;;
18190;SDS011;47004;51.366;12.348;2024-02-21T11:56:08;7.13;;;3.00;;
18190;SDS011;47004;51.366;12.348;2024-02-21T11:58:11;5.77;;;2.67;;
18190;SDS011;47004;51.366;12.348;2024-02-21T12:00:14;6.07;;;2.60;;